Check time and date!

LGTT 200600Z 04004KT 9000 FEW015 17/16 Q1021
TAF LGTT 200400Z 2006/2015 VRB05KT 8000 SCT020 PROB30 2006/2009 5000 BR SCT010
--------------------------------------
LGMG 200600Z 00000KT CAVOK 18/15 Q1019
TAF LGMG 200400Z 2006/2015 VRB05KT 8000 SCT012 PROB30 2006/2009 5000 BR SCT010
--------------------------------------
LGTG 200550Z 00000KT 2000 BR SCT010 15/15 Q1021 RMK FEW018
--------------------------------------
LGEL 200550Z 00000KT 8000 NSC 18/14 Q1019
TAF LGEL 200500Z 2006/2106 VRB03KT 6000 FEW020 PROB30 2006/2008 5000 BR SCT010 BECMG 2010/2012 18008KT BECMG 2102/2104 01015KT
--------------------------------------
LGAV 200550Z VRB02KT 5000 BR FEW018 15/15 Q1021 RMK NOSIG
TAF LGAV 200500Z 2006/2106 VRB03KT 6000 FEW013 SCT018 PROB40 2006/2009 5000 BR SCT010 BECMG 2007/2009 01013KT FEW020 BECMG 2102/2104 01013G23KT
--------------------------------------
LGAT 200600Z 00000KT CAVOK 19/16 Q1020 NOSIG
--------------------------------------
METAR LGAD 200550Z 00000KT CAVOK 15/13 Q1020
METAR LGAL 200550Z 00000KT 5000 BR FEW008 12/11 Q1021
METAR LGAV 200550Z VRB02KT 5000 BR FEW018 15/15 Q1021 NOSIG
METAR LGBL 200550Z 26005KT 7000 SCT015 15/14 Q1021
METAR LGEL 200550Z 00000KT 8000 NSC 18/14 Q1019
METAR LGHI 200550Z 20003KT CAVOK 15/13 Q1018
METAR LGIO 200550Z 00000KT 0100 FG VV001 09/09 Q1021
METAR LGIR 200550Z 18004KT 9999 FEW020 SCT030 20/19 Q1019 NOSIG
METAR LGKF 200550Z 00000KT 9999 FEW016 16/15 Q1020
METAR LGKL 200550Z 00000KT CAVOK 15/11 Q1020
METAR LGKO 200550Z 36006KT 9000 NSC 20/18 Q1018
METAR LGKR 200550Z 29002KT 9999 FEW018 16/15 Q1020 NOSIG
METAR LGKV 200550Z 00000KT 9000 FEW006 12/11 Q1021
METAR LGKZ 200550Z 33004KT 4000 BR SCT002 SCT020 12/09 Q1022
METAR LGLM 200550Z 33002KT 1200 BR FEW008 18/17 Q1020
METAR LGLR 200550Z 00000KT 0400 FG BKN008 13/13 Q1021 RED
METAR LGMK 200550Z 35009KT 7000 SCT010 20/17 Q1019
METAR LGMT 200550Z 00000KT 5000 BR BKN008 19/18 Q1020
METAR LGNX 200550Z 01005KT 9000 FEW010 20/19 Q1019
METAR LGPA 200550Z 36008KT 8000 FEW008 20/19 Q1019
METAR LGPZ 200550Z VRB03KT CAVOK 18/16 Q1021
METAR LGRP 200550Z /////KT 8000 NSC 22/19 Q1017 NOSIG
METAR LGRX 200550Z 00000KT CAVOK 14/14 Q1020
METAR LGSA 200550Z 00000KT 9999 SCT016 19/18 Q1019
METAR LGSK 200550Z 00000KT 6000 SCT012 18/17 Q1020
METAR LGSM 200550Z 01006KT 8000 FEW018 20/18 Q1018
METAR LGSO 200550Z 07006KT 9000 FEW012 20/18 Q1020
METAR LGSR 200550Z 36006KT 9999 FEW010 20/17 Q1019
METAR LGSY 200550Z 00000KT 8000 SCT012 17/16 Q1020
METAR LGTG 200550Z 00000KT 2000 BR SCT010 15/15 Q1021 RMK FEW018 YLO
METAR LGTS 200550Z VRB01KT 3500 BR BKN005 15/14 Q1022 TEMPO 2000
METAR LGZA 200550Z 00000KT 9999 FEW025 17/14 Q1020

--------------------------------------
TAF LGAD 200500Z 2006/2015 VRB03KT 9999 FEW020 TEMPO 2010/2015 32008KT
TAF LGAL 200500Z 2006/2015 VRB03KT 8000 FEW008 PROB40 2006/2009 5000 BR SCT008 BECMG 2008/2010 04013KT
TAF LGAV 200500Z 2006/2106 VRB03KT 6000 FEW013 SCT018 PROB40 2006/2009 5000 BR SCT010 BECMG 2007/2009 01013KT FEW020 BECMG 2102/2104 01013G23KT
TAF LGBL 200500Z 2006/2015 26006KT 8000 FEW020 PROB40 TEMPO 2006/2008 3000 BR FEW006 BECMG 2007/2009 09006KT
TAF LGEL 200500Z 2006/2106 VRB03KT 6000 FEW020 PROB30 2006/2008 5000 BR SCT010 BECMG 2010/2012 18008KT BECMG 2102/2104 01015KT
TAF LGHI 200500Z 2006/2015 VRB05KT 9000 FEW020 BECMG 2008/2010 36010KT PROB40 2006/2009 5000 BR SCT010
TAF LGIO 200500Z 2006/2015 VRB03KT 0100 FG OVC001 BECMG 2006/2008 5000 BR SCT006 BECMG 2009/2011 9999 FEW025
TAF LGIR 200500Z 2006/2106 18008KT 9999 FEW025 BECMG 2008/2010 30010KT PROB30 2006/2008 5000 BR SCT010
TAF LGKC 200500Z 2006/2015 04008KT 9000 FEW020 PROB30 2006/2007 5000 BR SCT010
TAF LGKF 200500Z 2006/2015 VRB03KT 9000 FEW020 PROB30 2006/2007 5000 BR SCT010
TAF LGKL 200500Z 2006/2015 34006KT 9999 FEW020 TEMPO 2010/2015 17006KT
TAF LGKO 200500Z 2006/2106 32010KT 7000 FEW016 PROB30 2006/2009 5000 BR SCT010 BECMG 2012/2014 32020KT
TAF LGKP 200500Z 2006/2015 32010KT 9999 FEW018
TAF LGKR 200500Z 2006/2106 VRB05KT 9999 FEW018 PROB30 2006/2008 5000 BR SCT010
TAF LGKV 200500Z 2006/2106 VRB03KT 9999 FEW020 PROB40 2102/2106 5000 BR SCT008
TAF LGLM 200500Z 2006/2015 01006KT 7000 FEW010 TEMPO 2006/2009 3000 BR FEW006 BECMG 2010/2012 05012KT
TAF LGLR 200500Z 2006/2015 VRB03KT 8000 FEW020 TEMPO 2006/2009 2000 BR FEW008
TAF LGMK 200500Z 2006/2015 36008KT 7000 SCT010 PROB30 2006/2007 5000 BR BECMG 2011/2013 36018KT
TAF LGMT 200500Z 2006/2015 VRB05KT 5000 BKN008 BECMG 2008/2010 36010KT 8000 SCT010 PROB40 2006/2008 5000 BR
TAF LGPZ 200500Z 2006/2106 VRB05KT 9999 FEW020 PROB30 2006/2008 5000 BR SCT010
TAF LGRP 200500Z 2006/2106 VRB05KT 9999 FEW020 PROB30 2006/2008 5000 BR SCT010 BECMG 2012/2014 27012KT
TAF LGRX 200500Z 2006/2015 VRB03KT 9999 FEW020 TEMPO 2010/2015 28008KT
TAF LGSA 200500Z 2006/2106 VRB03KT 9999 FEW020 PROB30 2006/2008 5000 BR SCT010 BECMG 2006/2008 05010KT BECMG 2015/2018 VRB05KT
TAF LGSK 200500Z 2006/2015 VRB03KT 7000 SCT012 PROB40 2006/2007 5000 BR SCT008
TAF LGSM 200500Z 2006/2015 VRB05KT 9000 FEW018 PROB40 2006/2009 5000 BR SCT010
TAF LGSR 200500Z 2006/2106 VRB05KT 9000 FEW018 PROB30 2006/2008 5000 BR SCT010 BECMG 2006/2008 35015KT
TAF LGST 200500Z 2006/2015 VRB05KT 9999 FEW020 PROB30 2006/2007 5000 BR SCT010 BECMG 2009/2011 34010KT
TAF LGSY 200500Z 2006/2015 35006KT 9999 FEW020 PROB30 TEMPO 2006/2007 4000 BR FEW008 BECMG 2010/2012 35012KT
TAF LGTG 200500Z 2006/2015 VRB03KT 7000 FEW020 TEMPO 2006/2009 2000 BR FEW008 TEMPO 2010/2012 06006KT
TAF LGTL 200500Z 2006/2015 01007KT 8000 SCT012
TAF LGTS 200500Z 2006/2106 VRB03KT 3000 BR SCT005 PROB40 2006/2008 0500 FG BKN002 BECMG 2009/2011 CAVOK PROB40 2102/2106 5000 BR SCT005 PROB30 2103/2106 0500 FG BKN005
TAF LGZA 200500Z 2006/2015 VRB03KT 9000 FEW020 PROB30 2006/2007 5000 BR SCT010